createdAt,value
2023-04-25T00:01:25.258Z,5.25
2023-04-25T00:03:52.319Z,5.23
2023-04-25T00:06:19.472Z,5.22
2023-04-25T00:08:46.169Z,5.22
2023-04-25T00:11:12.838Z,5.22
2023-04-25T00:13:42.776Z,5.19
2023-04-25T00:16:09.642Z,5.17
2023-04-25T00:18:37.457Z,5.13
2023-04-25T00:21:04.211Z,5.13
2023-04-25T00:23:31.034Z,5.12
2023-04-25T00:25:57.684Z,5.13
2023-04-25T00:28:24.317Z,5.14
2023-04-25T00:30:51.340Z,5.17
2023-04-25T00:33:18.044Z,5.18
2023-04-25T00:35:44.717Z,5.18
2023-04-25T00:38:11.371Z,5.15
2023-04-25T00:40:38.020Z,5.14
2023-04-25T00:43:06.465Z,5.15
2023-04-25T00:45:38.873Z,5.16
2023-04-25T00:48:06.541Z,5.14
2023-04-25T00:50:38.057Z,5.16
2023-04-25T00:53:04.968Z,5.16
2023-04-25T00:55:32.565Z,5.14
2023-04-25T00:57:59.376Z,5.13
2023-04-25T01:00:26.163Z,5.13
2023-04-25T01:02:53.452Z,5.09
2023-04-25T01:05:20.320Z,5.06
2023-04-25T01:07:46.996Z,5.05
2023-04-25T01:10:13.755Z,5.06
2023-04-25T01:12:41.040Z,5.06
2023-04-25T01:15:07.975Z,5.03
2023-04-25T01:17:36.687Z,5.00
2023-04-25T01:20:08.514Z,4.97
2023-04-25T01:22:35.609Z,4.92
2023-04-25T01:25:02.740Z,4.86
2023-04-25T01:27:30.381Z,4.82
2023-04-25T01:29:57.754Z,4.79
2023-04-25T01:32:25.056Z,4.75
2023-04-25T01:34:51.758Z,4.72
2023-04-25T01:37:18.872Z,4.67
2023-04-25T01:39:45.832Z,4.65
2023-04-25T01:42:14.703Z,4.63
2023-04-25T01:44:41.450Z,4.58
2023-04-25T01:47:08.176Z,4.56
2023-04-25T01:49:34.884Z,4.58
2023-04-25T01:52:01.631Z,4.58
2023-04-25T01:54:28.320Z,4.52
2023-04-25T01:56:59.009Z,4.49
2023-04-25T01:59:26.666Z,4.48
2023-04-25T02:01:53.436Z,4.39
2023-04-25T02:04:20.796Z,4.34
2023-04-25T02:06:47.556Z,4.31
2023-04-25T02:09:14.259Z,4.32
2023-04-25T02:11:40.993Z,4.34
2023-04-25T02:14:07.690Z,4.37
2023-04-25T02:16:34.440Z,4.44
2023-04-25T02:19:01.230Z,4.46
2023-04-25T02:21:27.888Z,4.44
2023-04-25T02:23:54.984Z,4.41
2023-04-25T02:26:24.767Z,4.44
2023-04-25T02:28:52.731Z,4.45
2023-04-25T02:31:19.674Z,4.43
2023-04-25T02:33:46.341Z,4.41
2023-04-25T02:36:12.989Z,4.39
2023-04-25T02:38:39.943Z,4.40
2023-04-25T02:41:12.363Z,4.36
2023-04-25T02:43:39.077Z,4.34
2023-04-25T02:46:05.866Z,4.35
2023-04-25T02:48:32.525Z,4.32
2023-04-25T02:50:59.192Z,4.35
2023-04-25T02:53:25.902Z,4.36
2023-04-25T02:55:53.754Z,4.38
2023-04-25T02:58:20.805Z,4.40
2023-04-25T03:00:47.524Z,4.39
2023-04-25T03:03:14.479Z,4.37
2023-04-25T03:05:41.224Z,4.35
2023-04-25T03:08:07.976Z,4.33
2023-04-25T03:10:34.677Z,4.31
2023-04-25T03:13:01.416Z,4.30
2023-04-25T03:15:28.156Z,4.31
2023-04-25T03:17:54.848Z,4.32
2023-04-25T03:20:21.612Z,4.35
2023-04-25T03:22:48.290Z,4.35
2023-04-25T03:25:14.939Z,4.34
2023-04-25T03:27:41.634Z,4.33
2023-04-25T03:30:08.952Z,4.32
2023-04-25T03:32:36.341Z,4.33
2023-04-25T03:35:03.072Z,4.31
2023-04-25T03:37:29.808Z,4.29
2023-04-25T03:39:56.454Z,4.25
2023-04-25T03:42:24.047Z,4.24
2023-04-25T03:44:52.480Z,4.22
2023-04-25T03:47:19.146Z,4.21
2023-04-25T03:49:45.800Z,4.19
2023-04-25T03:52:12.538Z,4.22
2023-04-25T03:54:39.308Z,4.26
2023-04-25T03:57:06.040Z,4.27
2023-04-25T03:59:32.714Z,4.30
2023-04-25T04:01:59.417Z,4.35
2023-04-25T04:04:26.356Z,4.39
2023-04-25T04:06:53.594Z,4.39
2023-04-25T04:09:21.500Z,4.40
2023-04-25T04:11:48.155Z,4.40
2023-04-25T04:14:14.854Z,4.40
2023-04-25T04:16:41.671Z,4.41
2023-04-25T04:19:08.439Z,4.36
2023-04-25T04:21:35.594Z,4.37
2023-04-25T04:24:02.287Z,4.40
2023-04-25T04:26:29.007Z,4.44
2023-04-25T04:28:56.092Z,4.46
2023-04-25T04:31:23.672Z,4.49
2023-04-25T04:33:51.113Z,4.50
2023-04-25T04:36:20.950Z,4.49
2023-04-25T04:38:47.625Z,4.48
2023-04-25T04:41:14.283Z,4.47
2023-04-25T04:43:41.078Z,4.48
2023-04-25T04:46:07.778Z,4.51
2023-04-25T04:48:35.421Z,4.54
2023-04-25T04:51:02.288Z,4.57
2023-04-25T04:53:29.077Z,4.56
2023-04-25T04:55:55.944Z,4.57
2023-04-25T04:58:22.760Z,4.56
2023-04-25T05:00:49.670Z,4.56
2023-04-25T05:03:16.837Z,4.58
2023-04-25T05:05:43.703Z,4.61
2023-04-25T05:08:10.469Z,4.64
2023-04-25T05:10:37.123Z,4.66
2023-04-25T05:13:03.929Z,4.68
2023-04-25T05:15:30.866Z,4.70
2023-04-25T05:17:57.772Z,4.73
2023-04-25T05:20:24.615Z,4.69
2023-04-25T05:22:51.268Z,4.70
2023-04-25T05:25:18.191Z,4.73
2023-04-25T05:27:44.869Z,4.70
2023-04-25T05:30:11.774Z,4.69
2023-04-25T05:32:38.604Z,4.73
2023-04-25T05:35:07.968Z,4.73
2023-04-25T05:37:34.894Z,4.74
2023-04-25T05:40:01.722Z,4.75
2023-04-25T05:42:28.411Z,4.77
2023-04-25T05:44:55.066Z,4.77
2023-04-25T05:47:21.722Z,4.74
2023-04-25T05:49:48.367Z,4.75
2023-04-25T05:52:16.152Z,4.71
2023-04-25T05:54:42.804Z,4.73
2023-04-25T05:57:09.551Z,4.76
2023-04-25T05:59:36.905Z,4.77
2023-04-25T06:02:03.613Z,4.81
2023-04-25T06:04:30.662Z,4.85
2023-04-25T06:06:57.472Z,4.89
2023-04-25T06:09:24.138Z,4.93
2023-04-25T06:11:50.835Z,4.94
2023-04-25T06:14:17.583Z,4.99
2023-04-25T06:16:44.241Z,5.01
2023-04-25T06:19:11.010Z,5.00
2023-04-25T06:21:37.669Z,5.02
2023-04-25T06:24:04.743Z,5.03
2023-04-25T06:26:31.433Z,5.06
2023-04-25T06:28:58.082Z,5.07
2023-04-25T06:31:24.881Z,5.10
2023-04-25T06:33:51.894Z,5.12
2023-04-25T06:36:18.758Z,5.13
2023-04-25T06:38:45.574Z,5.17
2023-04-25T06:41:12.251Z,5.18
2023-04-25T06:43:38.911Z,5.19
2023-04-25T06:46:05.613Z,5.20
2023-04-25T06:48:32.330Z,5.21
2023-04-25T06:50:59.036Z,5.19
2023-04-25T06:53:25.765Z,5.17
2023-04-25T06:55:52.485Z,5.17
2023-04-25T06:58:19.698Z,5.20
2023-04-25T07:00:46.368Z,5.21
2023-04-25T07:03:13.256Z,5.23
2023-04-25T07:05:40.240Z,5.28
2023-04-25T07:08:06.996Z,5.30
2023-04-25T07:10:33.668Z,5.37
2023-04-25T07:13:00.422Z,5.43
2023-04-25T07:15:27.100Z,5.49
2023-04-25T07:17:53.857Z,5.51
2023-04-25T07:20:20.875Z,5.55
2023-04-25T07:22:47.700Z,5.58
2023-04-25T07:25:14.409Z,5.63
2023-04-25T07:27:41.097Z,5.64
2023-04-25T07:30:08.491Z,5.66
2023-04-25T07:32:35.823Z,5.70
2023-04-25T07:35:03.114Z,5.76
2023-04-25T07:37:29.884Z,5.79
2023-04-25T07:39:56.584Z,5.85
2023-04-25T07:42:23.282Z,5.88
2023-04-25T07:44:49.933Z,5.93
2023-04-25T07:47:16.662Z,5.98
2023-04-25T07:49:43.380Z,6.01
2023-04-25T07:52:10.054Z,6.04
2023-04-25T07:54:36.731Z,6.07
2023-04-25T07:57:03.584Z,6.11
2023-04-25T07:59:30.807Z,6.17
2023-04-25T08:01:58.611Z,6.20
2023-04-25T08:04:26.951Z,6.19
2023-04-25T08:06:54.848Z,6.20
2023-04-25T08:09:21.937Z,6.21
2023-04-25T08:11:49.177Z,6.18
2023-04-25T08:14:15.877Z,6.18
2023-04-25T08:16:43.215Z,6.14
2023-04-25T08:19:11.302Z,6.09
2023-04-25T08:21:38.058Z,6.05
2023-04-25T08:24:05.024Z,6.02
2023-04-25T08:26:31.737Z,5.98
2023-04-25T08:28:58.374Z,5.98
2023-04-25T08:31:25.080Z,6.03
2023-04-25T08:33:53.114Z,6.05
2023-04-25T08:36:31.584Z,6.04
2023-04-25T08:39:05.917Z,6.00
2023-04-25T08:41:32.892Z,5.95
2023-04-25T08:44:01.570Z,5.97
2023-04-25T08:46:28.914Z,6.05
2023-04-25T08:48:59.628Z,6.17
2023-04-25T08:51:29.110Z,6.23
2023-04-25T08:53:57.938Z,6.26
2023-04-25T08:56:29.048Z,6.29
2023-04-25T08:58:56.652Z,6.30
2023-04-25T09:01:23.420Z,6.34
2023-04-25T09:03:50.547Z,6.47
2023-04-25T09:06:19.015Z,6.51
2023-04-25T09:08:45.693Z,6.51
2023-04-25T09:11:14.428Z,6.51
2023-04-25T09:13:41.206Z,6.54
2023-04-25T09:16:07.943Z,6.55
2023-04-25T09:18:35.973Z,6.59
2023-04-25T09:21:14.152Z,6.59
2023-04-25T09:23:46.167Z,6.57
2023-04-25T09:26:18.060Z,6.57
2023-04-25T09:28:44.814Z,6.64
2023-04-25T09:31:14.644Z,6.76
2023-04-25T09:33:41.930Z,6.82
2023-04-25T09:36:12.295Z,6.88
2023-04-25T09:38:47.256Z,6.91
2023-04-25T09:41:14.210Z,6.98
2023-04-25T09:43:41.071Z,7.06
2023-04-25T09:46:12.530Z,7.13
2023-04-25T09:48:39.303Z,7.22
2023-04-25T09:51:17.596Z,7.30
2023-04-25T09:53:47.410Z,7.39
2023-04-25T09:56:14.551Z,7.50
2023-04-25T09:58:42.184Z,7.57
2023-04-25T10:01:11.127Z,7.62
2023-04-25T10:03:46.063Z,7.64
2023-04-25T10:06:23.583Z,7.66
2023-04-25T10:08:52.383Z,7.72
2023-04-25T10:11:19.380Z,7.76
2023-04-25T10:13:47.036Z,7.81
2023-04-25T10:16:14.676Z,7.75
2023-04-25T10:18:41.782Z,7.66
2023-04-25T10:21:08.617Z,7.71
2023-04-25T10:23:36.271Z,7.74
2023-04-25T10:26:03.213Z,7.69
2023-04-25T10:28:29.862Z,7.65
2023-04-25T10:31:04.943Z,7.62
2023-04-25T10:33:35.835Z,7.64
2023-04-25T10:36:13.932Z,7.76
2023-04-25T10:38:41.284Z,7.82
2023-04-25T10:41:10.490Z,7.89
2023-04-25T10:43:43.982Z,7.98
2023-04-25T10:46:24.423Z,8.01
2023-04-25T10:48:56.417Z,8.04
2023-04-25T10:51:24.188Z,8.03
2023-04-25T10:53:56.888Z,8.05
2023-04-25T10:56:26.685Z,8.06
2023-04-25T10:59:15.805Z,8.11
2023-04-25T11:01:45.229Z,8.16
2023-04-25T11:04:37.301Z,8.22
2023-04-25T11:07:08.346Z,8.28
2023-04-25T11:09:37.079Z,8.27
2023-04-25T11:12:04.002Z,8.28
2023-04-25T11:14:30.732Z,8.27
2023-04-25T11:17:03.131Z,8.30
2023-04-25T11:19:30.554Z,8.26
2023-04-25T11:21:58.507Z,8.28
2023-04-25T11:24:29.050Z,8.32
2023-04-25T11:26:56.187Z,8.38
2023-04-25T11:29:30.128Z,8.38
2023-04-25T11:31:59.153Z,8.37
2023-04-25T11:34:27.126Z,8.39
2023-04-25T11:36:54.516Z,8.38
2023-04-25T11:39:21.685Z,8.42
2023-04-25T11:41:48.733Z,8.45
2023-04-25T11:44:19.697Z,8.43
2023-04-25T11:46:47.267Z,8.34
2023-04-25T11:49:15.193Z,8.24
2023-04-25T11:51:44.362Z,8.20
2023-04-25T11:54:12.826Z,8.16
2023-04-25T11:56:43.458Z,8.12
2023-04-25T11:59:10.777Z,8.07
2023-04-25T12:01:39.912Z,8.06
2023-04-25T12:04:16.851Z,8.11
2023-04-25T12:06:47.728Z,8.13
2023-04-25T12:09:16.938Z,8.17
2023-04-25T12:11:45.462Z,8.22
2023-04-25T12:14:13.235Z,8.28
2023-04-25T12:16:47.881Z,8.32
2023-04-25T12:19:16.345Z,8.42
2023-04-25T12:21:54.423Z,8.47
2023-04-25T12:24:26.718Z,8.48
2023-04-25T12:27:06.618Z,8.44
2023-04-25T12:29:46.009Z,8.45
2023-04-25T12:32:16.366Z,8.46
2023-04-25T12:34:43.544Z,8.40
2023-04-25T12:37:11.433Z,8.41
2023-04-25T12:39:38.450Z,8.45
2023-04-25T12:42:07.689Z,8.49
2023-04-25T12:44:36.143Z,8.53
2023-04-25T12:47:04.356Z,8.58
2023-04-25T12:49:31.294Z,8.64
2023-04-25T12:51:58.152Z,8.66
2023-04-25T12:54:25.741Z,8.71
2023-04-25T12:56:52.565Z,8.79
2023-04-25T12:59:19.636Z,8.83
2023-04-25T13:01:46.655Z,8.80
2023-04-25T13:04:13.550Z,8.81
2023-04-25T13:06:40.658Z,8.85
2023-04-25T13:09:07.951Z,8.91
2023-04-25T13:11:34.677Z,8.97
2023-04-25T13:14:02.088Z,9.07
2023-04-25T13:16:28.825Z,9.13
2023-04-25T13:18:57.311Z,9.23
2023-04-25T13:21:24.375Z,9.33
2023-04-25T13:23:51.583Z,9.43
2023-04-25T13:26:18.621Z,9.53
2023-04-25T13:28:45.297Z,9.61
2023-04-25T13:31:12.148Z,9.68
2023-04-25T13:33:38.866Z,9.72
2023-04-25T13:36:06.727Z,9.72
2023-04-25T13:38:33.713Z,9.75
2023-04-25T13:41:00.649Z,9.79
2023-04-25T13:43:27.293Z,9.80
2023-04-25T13:45:54.088Z,9.79
2023-04-25T13:48:21.404Z,9.78
2023-04-25T13:50:48.129Z,9.77
2023-04-25T13:53:14.831Z,9.75
2023-04-25T13:55:41.596Z,9.78
2023-04-25T13:58:09.055Z,9.80
2023-04-25T14:00:40.470Z,9.82
2023-04-25T14:03:10.937Z,9.84
2023-04-25T14:05:39.255Z,9.87
2023-04-25T14:08:11.022Z,9.99
2023-04-25T14:10:38.369Z,10.07
2023-04-25T14:13:05.694Z,10.20
2023-04-25T14:15:33.297Z,10.34
2023-04-25T14:18:01.718Z,10.47
2023-04-25T14:20:28.886Z,10.50
2023-04-25T14:22:57.158Z,10.53
2023-04-25T14:25:24.476Z,10.54
2023-04-25T14:27:51.430Z,10.56
2023-04-25T14:30:19.734Z,10.57
2023-04-25T14:32:46.789Z,10.57
2023-04-25T14:35:13.868Z,10.55
2023-04-25T14:37:41.080Z,10.51
2023-04-25T14:40:13.108Z,10.54
2023-04-25T14:42:40.865Z,10.54
2023-04-25T14:45:09.608Z,10.55
2023-04-25T14:47:39.235Z,10.56
2023-04-25T14:50:07.737Z,10.56
2023-04-25T14:52:34.413Z,10.55
2023-04-25T14:55:02.809Z,10.56
2023-04-25T14:57:29.513Z,10.55
2023-04-25T14:59:56.354Z,10.54
2023-04-25T15:02:23.628Z,10.54
2023-04-25T15:04:50.487Z,10.53
2023-04-25T15:07:18.533Z,10.51
2023-04-25T15:09:45.531Z,10.49
2023-04-25T15:12:13.113Z,10.49
2023-04-25T15:14:39.790Z,10.49
2023-04-25T15:17:06.500Z,10.49
2023-04-25T15:19:33.448Z,10.49
2023-04-25T15:22:03.964Z,10.49
2023-04-25T15:24:30.745Z,10.49
2023-04-25T15:26:57.654Z,10.47
2023-04-25T15:29:24.304Z,10.47
2023-04-25T15:31:51.350Z,10.46
2023-04-25T15:34:18.232Z,10.43
2023-04-25T15:36:45.019Z,10.39
2023-04-25T15:39:11.974Z,10.35
2023-04-25T15:41:38.835Z,10.27
2023-04-25T15:44:05.623Z,10.14
2023-04-25T15:46:32.461Z,10.01
2023-04-25T15:48:59.301Z,9.86
2023-04-25T15:51:27.019Z,9.70
2023-04-25T15:53:54.128Z,9.59
2023-04-25T15:56:21.511Z,9.46
2023-04-25T15:58:48.568Z,9.36
2023-04-25T16:01:15.863Z,9.29
2023-04-25T16:03:42.888Z,9.26
2023-04-25T16:06:09.656Z,9.21
2023-04-25T16:08:36.453Z,9.20
2023-04-25T16:11:03.609Z,9.17
2023-04-25T16:13:30.355Z,9.14
2023-04-25T16:15:57.792Z,9.10
2023-04-25T16:18:24.700Z,9.08
2023-04-25T16:20:51.458Z,9.05
2023-04-25T16:23:18.639Z,9.02
2023-04-25T16:25:45.897Z,8.97
2023-04-25T16:28:12.702Z,8.95
2023-04-25T16:30:39.510Z,8.93
2023-04-25T16:33:06.259Z,8.88
2023-04-25T16:35:33.079Z,8.84
2023-04-25T16:37:59.921Z,8.81
2023-04-25T16:40:27.296Z,8.81
2023-04-25T16:42:53.965Z,8.81
2023-04-25T16:45:21.572Z,8.80
2023-04-25T16:47:48.303Z,8.81
2023-04-25T16:50:15.369Z,8.80
2023-04-25T16:52:44.149Z,8.78
2023-04-25T16:55:11.232Z,8.78
2023-04-25T16:57:38.220Z,8.76
2023-04-25T17:00:06.891Z,8.76
2023-04-25T17:02:33.688Z,8.79
2023-04-25T17:05:00.523Z,8.80
2023-04-25T17:07:27.968Z,8.78
2023-04-25T17:09:54.695Z,8.78
2023-04-25T17:12:21.901Z,8.78
2023-04-25T17:14:49.773Z,8.73
2023-04-25T17:17:18.792Z,8.71
2023-04-25T17:19:46.720Z,8.67
2023-04-25T17:22:13.492Z,8.67
2023-04-25T17:24:40.755Z,8.68
2023-04-25T17:27:07.706Z,8.67
2023-04-25T17:29:35.257Z,8.69
2023-04-25T17:32:02.052Z,8.71
2023-04-25T17:34:29.214Z,8.72
2023-04-25T17:36:55.875Z,8.74
2023-04-25T17:39:22.559Z,8.74
2023-04-25T17:41:49.358Z,8.74
2023-04-25T17:44:16.059Z,8.75
2023-04-25T17:46:42.785Z,8.74
2023-04-25T17:49:09.483Z,8.75
2023-04-25T17:51:36.168Z,8.75
2023-04-25T17:54:03.035Z,8.76
2023-04-25T17:56:30.728Z,8.74
2023-04-25T17:58:57.613Z,8.76
2023-04-25T18:01:24.351Z,8.77
2023-04-25T18:03:51.888Z,8.77
2023-04-25T18:06:19.371Z,8.76
2023-04-25T18:08:47.285Z,8.75
2023-04-25T18:11:14.253Z,8.75
2023-04-25T18:13:41.610Z,8.73
2023-04-25T18:16:08.621Z,8.70
2023-04-25T18:18:36.372Z,8.66
2023-04-25T18:21:05.378Z,8.65
2023-04-25T18:23:34.304Z,8.61
2023-04-25T18:26:02.168Z,8.60
2023-04-25T18:28:29.364Z,8.58
2023-04-25T18:30:56.779Z,8.56
2023-04-25T18:33:23.727Z,8.55
2023-04-25T18:35:58.832Z,8.54
2023-04-25T18:41:08.348Z,8.52
2023-04-25T18:43:44.431Z,8.49
2023-04-25T18:46:11.424Z,8.46
2023-04-25T18:48:38.117Z,8.44
2023-04-25T18:51:05.700Z,8.42
2023-04-25T18:53:32.591Z,8.42
2023-04-25T18:55:59.276Z,8.40
2023-04-25T18:58:26.409Z,8.38
2023-04-25T19:00:53.565Z,8.35
2023-04-25T19:03:21.255Z,8.32
2023-04-25T19:05:48.111Z,8.30
2023-04-25T19:08:14.762Z,8.28
2023-04-25T19:10:41.457Z,8.29
2023-04-25T19:13:08.649Z,8.27
2023-04-25T19:15:35.447Z,8.27
2023-04-25T19:18:02.900Z,8.27
2023-04-25T19:20:29.648Z,8.23
2023-04-25T19:22:56.853Z,8.24
2023-04-25T19:25:24.974Z,8.24
2023-04-25T19:27:51.980Z,8.24
2023-04-25T19:30:18.858Z,8.22
2023-04-25T19:32:46.047Z,8.19
2023-04-25T19:35:13.511Z,8.16
2023-04-25T19:37:46.335Z,8.13
2023-04-25T19:40:19.686Z,8.11
2023-04-25T19:42:46.542Z,8.07
2023-04-25T19:45:13.725Z,8.07
2023-04-25T19:47:42.014Z,8.05
2023-04-25T19:50:09.588Z,8.02
2023-04-25T19:52:37.246Z,8.03
2023-04-25T19:55:05.118Z,8.01
2023-04-25T19:57:33.625Z,7.98
2023-04-25T20:00:02.006Z,7.98
2023-04-25T20:02:28.765Z,7.95
2023-04-25T20:04:55.531Z,7.86
2023-04-25T20:07:23.627Z,7.82
2023-04-25T20:09:50.422Z,7.81
2023-04-25T20:12:18.109Z,7.81
2023-04-25T20:14:45.138Z,7.80
2023-04-25T20:17:12.253Z,7.80
2023-04-25T20:19:39.744Z,7.81
2023-04-25T20:22:06.513Z,7.82
2023-04-25T20:24:33.206Z,7.84
2023-04-25T20:27:00.108Z,7.82
2023-04-25T20:29:27.131Z,7.79
2023-04-25T20:31:55.018Z,7.76
2023-04-25T20:34:22.576Z,7.76
2023-04-25T20:36:49.264Z,7.78
2023-04-25T20:39:16.015Z,7.79
2023-04-25T20:41:44.779Z,7.78
2023-04-25T20:44:12.453Z,7.75
2023-04-25T20:46:39.992Z,7.69
2023-04-25T20:49:07.717Z,7.68
2023-04-25T20:51:37.601Z,7.64
2023-04-25T20:54:04.330Z,7.57
2023-04-25T20:56:31.070Z,7.54
2023-04-25T20:58:58.434Z,7.52
2023-04-25T21:01:25.440Z,7.50
2023-04-25T21:03:53.020Z,7.47
2023-04-25T21:06:19.811Z,7.46
2023-04-25T21:08:46.492Z,7.45
2023-04-25T21:11:13.181Z,7.46
2023-04-25T21:13:39.866Z,7.45
2023-04-25T21:16:06.777Z,7.46
2023-04-25T21:18:34.839Z,7.46
2023-04-25T21:21:04.280Z,7.45
2023-04-25T21:23:31.916Z,7.43
2023-04-25T21:25:58.597Z,7.40
2023-04-25T21:28:25.397Z,7.40
2023-04-25T21:30:52.576Z,7.35
2023-04-25T21:33:19.405Z,7.30
2023-04-25T21:35:46.355Z,7.29
2023-04-25T21:38:13.123Z,7.29
2023-04-25T21:40:40.552Z,7.27
2023-04-25T21:43:07.580Z,7.26
2023-04-25T21:45:43.343Z,7.24
2023-04-25T21:48:21.830Z,7.22
2023-04-25T21:50:48.484Z,7.22
2023-04-25T21:53:15.157Z,7.22
2023-04-25T21:55:41.835Z,7.20
2023-04-25T21:58:08.458Z,7.19
2023-04-25T22:00:35.127Z,7.17
2023-04-25T22:03:01.983Z,7.15
2023-04-25T22:05:29.543Z,7.13
2023-04-25T22:07:59.191Z,7.12
2023-04-25T22:10:25.936Z,7.11
2023-04-25T22:12:52.985Z,7.12
2023-04-25T22:15:21.583Z,7.13
2023-04-25T22:17:48.752Z,7.13
2023-04-25T22:20:15.748Z,7.11
2023-04-25T22:22:43.044Z,7.07
2023-04-25T22:25:12.825Z,7.04
2023-04-25T22:27:43.877Z,7.03
2023-04-25T22:30:15.486Z,6.99
2023-04-25T22:32:43.984Z,6.98
2023-04-25T22:35:11.724Z,6.96
2023-04-25T22:37:40.831Z,6.96
2023-04-25T22:40:09.176Z,6.94
2023-04-25T22:42:40.290Z,6.94
2023-04-25T22:45:08.293Z,6.94
2023-04-25T22:47:39.112Z,6.95
2023-04-25T22:50:12.307Z,6.97
2023-04-25T22:52:39.212Z,6.99
2023-04-25T22:55:06.628Z,6.97
2023-04-25T22:57:33.346Z,6.99
2023-04-25T23:00:00.055Z,6.99
2023-04-25T23:02:27.459Z,7.02
2023-04-25T23:04:55.055Z,7.04
2023-04-25T23:07:21.980Z,7.04
2023-04-25T23:09:49.372Z,7.03
2023-04-25T23:12:21.694Z,7.02
2023-04-25T23:14:52.000Z,6.99
2023-04-25T23:17:18.704Z,6.96
2023-04-25T23:19:45.376Z,6.93
2023-04-25T23:22:12.611Z,6.93
2023-04-25T23:24:39.278Z,6.94
2023-04-25T23:27:06.213Z,6.96
2023-04-25T23:29:34.235Z,6.96
2023-04-25T23:32:04.326Z,6.99
2023-04-25T23:34:31.790Z,6.98
2023-04-25T23:37:01.280Z,6.97
2023-04-25T23:39:28.528Z,7.00
2023-04-25T23:41:55.876Z,7.02
2023-04-25T23:44:22.708Z,7.01
2023-04-25T23:46:50.432Z,7.02
2023-04-25T23:49:17.130Z,7.02
2023-04-25T23:51:43.813Z,7.05
2023-04-25T23:54:10.529Z,7.06
2023-04-25T23:56:37.216Z,7.06
2023-04-25T23:59:04.043Z,7.02
